Time;durP1;ratioP1;P1;durP2;ratioP2;P2;SDS_P1;SDS_P2;PMS_P1;PMS_P2;Temp;Humidity;BMP_temperature;BMP_pressure;BME280_temperature;BME280_humidity;BME280_pressure;Samples;Min_cycle;Max_cycle;Signal;HPM_P1;HPM_P2
2023/01/26 00:02:11;;;;;;;67.80;32.90;;;;;;;3.46;79.16;101061.60;129652;1278;114729;-66
2023/01/26 00:05:13;;;;;;;67.10;33.00;;;;;;;3.48;79.25;101055.57;129854;1271;115211;-66
2023/01/26 00:08:16;;;;;;;73.40;36.90;;;;;;;3.49;79.22;101056.80;129687;1278;115259;-66
2023/01/26 00:11:23;;;;;;;64.80;33.90;;;;;;;3.49;79.11;101062.80;129721;1278;115241;-66
2023/01/26 00:14:25;;;;;;;70.50;35.20;;;;;;;3.48;79.16;101054.17;129908;1278;114978;-66
2023/01/26 00:17:28;;;;;;;79.50;35.00;;;;;;;3.46;79.21;101051.36;129826;1259;115256;-65
2023/01/26 00:20:30;;;;;;;72.90;34.40;;;;;;;3.46;79.00;101046.42;129882;1259;114772;-67
2023/01/26 00:23:34;;;;;;;72.90;36.20;;;;;;;3.47;79.19;101049.77;130059;1253;115392;-67
2023/01/26 00:26:36;;;;;;;70.80;34.80;;;;;;;3.48;79.07;101046.57;130066;1257;115268;-67
2023/01/26 00:29:38;;;;;;;74.80;35.80;;;;;;;3.49;79.20;101044.09;129907;1260;115322;-65
2023/01/26 00:32:41;;;;;;;65.80;34.00;;;;;;;3.50;79.14;101041.79;129933;1275;115212;-65
2023/01/26 00:35:43;;;;;;;70.00;34.50;;;;;;;3.48;79.08;101043.04;130107;1277;114758;-65
2023/01/26 00:38:46;;;;;;;66.40;33.20;;;;;;;3.46;79.04;101045.35;129802;1277;114962;-65
2023/01/26 00:45:10;;;;;;;64.70;31.80;;;;;;;3.45;79.15;101038.30;129623;1254;116508;-65
2023/01/26 00:48:13;;;;;;;64.70;30.80;;;;;;;3.45;79.16;101036.52;130054;1257;114731;-65
2023/01/26 00:51:15;;;;;;;58.60;27.30;;;;;;;3.44;79.01;101036.89;130033;1258;115330;-65
2023/01/26 00:54:18;;;;;;;63.30;29.90;;;;;;;3.39;78.62;101037.28;130043;1260;114797;-66
2023/01/26 00:57:20;;;;;;;64.00;29.50;;;;;;;3.35;78.80;101040.50;129723;1258;114814;-65
2023/01/26 01:00:23;;;;;;;60.70;29.00;;;;;;;3.37;78.97;101039.25;129965;1277;114814;-65
2023/01/26 01:03:25;;;;;;;58.90;29.80;;;;;;;3.37;78.87;101040.84;129940;1274;114712;-66
2023/01/26 01:06:28;;;;;;;58.70;29.50;;;;;;;3.34;78.82;101033.98;130016;1278;114780;-64
2023/01/26 01:09:30;;;;;;;61.90;30.70;;;;;;;3.34;78.85;101033.44;130077;1259;114862;-65
2023/01/26 01:12:33;;;;;;;59.80;31.10;;;;;;;3.34;78.99;101035.56;129715;1278;114875;-66
2023/01/26 01:15:37;;;;;;;63.80;32.00;;;;;;;3.32;79.09;101036.81;129940;1278;115339;-64
2023/01/26 01:18:40;;;;;;;69.00;33.00;;;;;;;3.26;78.78;101030.67;129635;1264;127866;-65
2023/01/26 01:21:43;;;;;;;60.60;30.10;;;;;;;3.23;78.77;101029.48;129891;1278;114754;-65
2023/01/26 01:24:46;;;;;;;62.50;31.00;;;;;;;3.16;78.70;101028.81;130045;1270;114815;-62
2023/01/26 01:27:48;;;;;;;63.50;32.60;;;;;;;3.16;79.06;101031.80;129858;1278;114926;-65
2023/01/26 01:30:51;;;;;;;67.10;33.70;;;;;;;3.20;79.10;101029.48;130024;1259;115233;-65
2023/01/26 01:33:54;;;;;;;70.90;34.70;;;;;;;3.17;78.78;101029.33;129840;1270;114937;-66
2023/01/26 01:36:56;;;;;;;69.20;35.70;;;;;;;3.12;78.93;101025.31;129788;1266;115190;-65
2023/01/26 01:39:58;;;;;;;77.00;35.70;;;;;;;3.11;79.02;101023.38;129889;1278;114677;-63
2023/01/26 01:43:01;;;;;;;77.50;37.20;;;;;;;3.12;79.19;101021.78;129932;1255;115103;-65
2023/01/26 01:46:11;;;;;;;66.60;34.60;;;;;;;3.10;79.09;101014.55;129735;1278;114839;-66
2023/01/26 01:49:21;;;;;;;70.70;35.20;;;;;;;3.06;79.05;101015.64;129889;1256;114738;-65
2023/01/26 01:52:29;;;;;;;71.90;34.50;;;;;;;3.04;79.03;101015.14;129525;1256;114892;-65
2023/01/26 01:55:31;;;;;;;71.40;35.30;;;;;;;3.00;79.03;101006.15;129637;1261;129019;-66
2023/01/26 01:58:37;;;;;;;74.50;35.20;;;;;;;2.98;79.03;101005.46;129879;1278;114729;-65
2023/01/26 02:01:41;;;;;;;79.70;39.30;;;;;;;2.96;79.03;101001.42;129841;1256;114829;-66
2023/01/26 02:04:43;;;;;;;78.70;37.30;;;;;;;2.94;78.93;100991.73;129566;1278;114890;-65
2023/01/26 02:07:45;;;;;;;86.40;38.60;;;;;;;2.90;79.02;100988.77;129615;1278;115373;-66
2023/01/26 02:10:50;;;;;;;86.90;40.90;;;;;;;2.89;79.35;100990.16;129789;1278;114760;-66
2023/01/26 02:13:53;;;;;;;82.00;39.40;;;;;;;2.93;79.32;100983.97;129756;1278;115200;-63
2023/01/26 02:16:55;;;;;;;82.80;39.90;;;;;;;2.95;79.40;100979.20;129808;1262;114810;-65
2023/01/26 02:20:10;;;;;;;81.50;38.70;;;;;;;2.95;79.16;100980.07;129945;1259;114840;-66
2023/01/26 02:23:41;;;;;;;77.50;38.20;;;;;;;2.88;79.06;100979.59;129597;1262;114750;-66
2023/01/26 02:26:44;;;;;;;80.00;37.40;;;;;;;2.81;79.19;100977.01;128834;1284;128820;-65
2023/01/26 02:29:50;;;;;;;77.90;36.80;;;;;;;2.80;79.25;100966.42;128998;1264;114908;-65
2023/01/26 02:32:52;;;;;;;67.90;34.50;;;;;;;2.78;79.10;100964.67;129072;1264;115024;-65
2023/01/26 02:35:54;;;;;;;74.10;38.20;;;;;;;2.81;79.12;100957.95;129128;1268;115038;-65
2023/01/26 02:39:05;;;;;;;79.00;38.80;;;;;;;2.86;79.49;100952.09;129081;1267;114954;-65
2023/01/26 02:45:29;;;;;;;83.00;39.40;;;;;;;2.96;79.40;100948.31;128978;1267;115343;-65
2023/01/26 02:51:53;;;;;;;84.70;39.40;;;;;;;3.02;79.36;100937.32;128832;1287;114918;-66
2023/01/26 02:58:17;;;;;;;82.50;39.10;;;;;;;3.05;79.21;100935.89;128862;1287;128896;-65
2023/01/26 03:01:19;;;;;;;77.80;37.90;;;;;;;3.02;78.87;100936.26;129114;1269;115037;-65
2023/01/26 03:04:21;;;;;;;75.90;37.10;;;;;;;2.98;78.70;100932.41;129754;1256;114806;-66
2023/01/26 03:07:24;;;;;;;82.60;38.00;;;;;;;2.98;78.77;100928.36;130019;1259;114820;-66
2023/01/26 03:10:26;;;;;;;86.50;39.60;;;;;;;2.97;78.35;100927.49;129700;1259;114848;-66
2023/01/26 03:13:28;;;;;;;82.80;39.80;;;;;;;2.96;78.51;100920.43;129803;1278;114745;-66
2023/01/26 03:16:30;;;;;;;89.10;41.70;;;;;;;2.96;78.26;100918.33;129720;1278;115175;-64
2023/01/26 03:29:37;;;;;;;95.10;42.90;;;;;;;3.01;78.29;100897.98;129574;1264;114826;-66
2023/01/26 03:32:40;;;;;;;91.70;42.10;;;;;;;3.00;78.45;100897.63;129856;1259;114850;-66
2023/01/26 03:35:43;;;;;;;98.40;42.20;;;;;;;2.98;78.32;100895.88;129865;1278;114735;-66
2023/01/26 03:38:46;;;;;;;100.90;43.50;;;;;;;2.95;78.36;100895.73;129802;1278;115136;-62
2023/01/26 03:58:37;;;;;;;89.80;42.20;;;;;;;2.87;77.43;100876.94;129604;1260;114755;-65
2023/01/26 04:08:29;;;;;;;92.80;42.60;;;;;;;2.88;77.26;100877.98;129545;1267;128377;-63
2023/01/26 04:11:31;;;;;;;87.00;41.50;;;;;;;2.81;76.82;100875.21;129796;1259;114731;-62
2023/01/26 04:21:32;;;;;;;88.80;42.60;;;;;;;2.61;76.17;100867.26;129752;1259;114792;-64
2023/01/26 04:24:34;;;;;;;88.30;41.50;;;;;;;2.55;76.29;100864.13;129520;1265;114906;-65
2023/01/26 04:27:37;;;;;;;91.70;43.50;;;;;;;2.53;76.42;100868.02;129802;1259;114801;-62
2023/01/26 04:30:39;;;;;;;81.30;38.40;;;;;;;2.52;76.44;100867.67;129984;1278;116400;-64
2023/01/26 04:33:42;;;;;;;83.30;38.80;;;;;;;2.51;76.37;100866.09;129956;1256;114818;-63
2023/01/26 04:36:44;;;;;;;82.40;39.60;;;;;;;2.51;76.55;100865.73;129871;1259;114732;-63
2023/01/26 04:39:47;;;;;;;86.60;43.30;;;;;;;2.50;76.04;100861.52;129875;1255;114771;-64
2023/01/26 04:42:49;;;;;;;86.60;43.10;;;;;;;2.50;76.14;100852.71;129802;1278;115314;-63
2023/01/26 04:46:00;;;;;;;93.00;44.90;;;;;;;2.53;76.15;100853.73;129735;1272;114760;-64
2023/01/26 04:49:02;;;;;;;102.40;45.50;;;;;;;2.52;76.01;100850.39;129831;1278;115219;-64
2023/01/26 04:52:04;;;;;;;100.30;46.30;;;;;;;2.53;76.32;100845.98;129789;1259;114759;-64
2023/01/26 04:55:07;;;;;;;99.30;45.70;;;;;;;2.56;76.33;100842.77;129975;1259;115366;-63
2023/01/26 04:58:10;;;;;;;90.00;44.10;;;;;;;2.59;76.21;100836.75;129908;1278;115175;-63
2023/01/26 05:01:12;;;;;;;89.20;42.30;;;;;;;2.57;75.95;100836.25;129703;1278;114830;-66
2023/01/26 05:04:14;;;;;;;87.70;41.60;;;;;;;2.55;76.19;100835.56;130152;1273;114715;-63
2023/01/26 05:07:17;;;;;;;96.20;43.10;;;;;;;2.55;76.32;100833.45;129866;1253;114810;-64
2023/01/26 05:10:19;;;;;;;90.50;42.40;;;;;;;2.56;76.25;100832.20;130199;1269;115180;-63
2023/01/26 05:13:21;;;;;;;89.80;42.30;;;;;;;2.56;76.39;100827.98;129748;1259;114886;-62
2023/01/26 05:16:24;;;;;;;86.20;41.00;;;;;;;2.55;76.30;100826.75;129950;1253;115150;-65
2023/01/26 05:19:26;;;;;;;83.70;40.30;;;;;;;2.55;76.33;100825.86;130035;1254;115631;-64
2023/01/26 05:22:28;;;;;;;90.50;42.90;;;;;;;2.58;76.41;100830.24;129880;1259;114790;-65
2023/01/26 05:25:31;;;;;;;81.00;41.90;;;;;;;2.60;76.17;100826.19;129566;1262;127220;-66
2023/01/26 05:28:34;;;;;;;87.70;42.50;;;;;;;2.61;76.12;100828.46;129715;1278;114749;-66
2023/01/26 05:31:36;;;;;;;86.40;40.00;;;;;;;2.63;76.17;100825.80;130076;1278;114825;-65
2023/01/26 05:34:39;;;;;;;83.00;43.20;;;;;;;2.64;76.15;100825.63;129854;1278;114706;-65
2023/01/26 05:37:41;;;;;;;82.70;39.70;;;;;;;2.63;76.04;100822.27;129850;1256;114749;-65
2023/01/26 05:40:44;;;;;;;89.40;42.60;;;;;;;2.63;75.99;100823.34;129613;1278;115004;-66
2023/01/26 05:43:46;;;;;;;81.70;41.70;;;;;;;2.61;76.01;100827.77;129925;1278;114840;-64
2023/01/26 05:46:49;;;;;;;80.00;41.00;;;;;;;2.60;75.99;100827.23;129853;1278;114782;-65
2023/01/26 05:49:51;;;;;;;85.80;41.40;;;;;;;2.58;76.06;100831.48;129840;1259;114724;-65
2023/01/26 05:52:54;;;;;;;80.10;39.80;;;;;;;2.56;75.80;100827.45;129823;1257;114817;-65
2023/01/26 05:55:56;;;;;;;82.40;39.10;;;;;;;2.54;76.09;100824.98;129902;1257;114812;-66
2023/01/26 05:59:02;;;;;;;82.80;39.60;;;;;;;2.53;76.05;100823.41;129849;1259;114729;-66
2023/01/26 06:02:04;;;;;;;67.50;36.40;;;;;;;2.53;76.08;100821.64;129740;1278;129665;-65
2023/01/26 06:05:07;;;;;;;74.00;36.90;;;;;;;2.53;75.81;100817.61;129879;1259;115289;-65
2023/01/26 06:08:10;;;;;;;81.00;39.70;;;;;;;2.52;75.94;100813.72;129949;1257;114718;-65
2023/01/26 06:11:12;;;;;;;68.10;35.80;;;;;;;2.54;76.03;100812.48;129933;1278;115331;-65
2023/01/26 06:14:14;;;;;;;71.90;36.70;;;;;;;2.54;75.62;100809.84;129778;1278;114819;-65
2023/01/26 06:17:17;;;;;;;71.30;38.30;;;;;;;2.53;75.75;100806.32;129736;1278;114844;-66
2023/01/26 06:20:20;;;;;;;72.10;37.20;;;;;;;2.50;75.45;100803.67;129881;1277;114845;-66
2023/01/26 06:23:22;;;;;;;75.80;39.40;;;;;;;2.47;75.36;100803.36;129933;1277;115164;-66
2023/01/26 06:26:25;;;;;;;76.60;37.80;;;;;;;2.45;75.50;100806.38;129807;1256;114738;-66
2023/01/26 06:29:27;;;;;;;75.20;39.10;;;;;;;2.43;75.59;100804.63;129861;1259;115381;-65
2023/01/26 06:32:30;;;;;;;69.00;38.20;;;;;;;2.43;75.69;100807.10;129897;1260;115393;-65
2023/01/26 06:35:34;;;;;;;71.40;37.40;;;;;;;2.42;75.43;100810.63;129824;1271;115292;-66
2023/01/26 06:38:44;;;;;;;70.90;38.30;;;;;;;2.40;75.49;100811.70;129914;1278;128800;-65
2023/01/26 06:41:47;;;;;;;65.30;36.30;;;;;;;2.36;75.39;100816.48;130225;1259;115265;-66
2023/01/26 06:44:51;;;;;;;78.20;37.10;;;;;;;2.34;75.53;100816.50;130212;1262;114781;-66
2023/01/26 06:47:55;;;;;;;75.60;34.60;;;;;;;2.32;75.13;100812.98;130198;1278;115604;-64
2023/01/26 06:51:17;;;;;;;79.60;37.10;;;;;;;2.32;75.31;100813.00;130226;1269;114834;-63
2023/01/26 06:54:19;;;;;;;79.70;40.80;;;;;;;2.30;74.90;100813.71;130062;1259;128919;-65
2023/01/26 06:57:22;;;;;;;81.10;42.00;;;;;;;2.31;74.80;100816.36;129957;1277;115329;-65
2023/01/26 07:00:24;;;;;;;89.90;44.20;;;;;;;2.31;74.91;100815.65;129972;1277;115207;-65
2023/01/26 07:03:27;;;;;;;78.90;42.50;;;;;;;2.32;74.79;100819.70;130040;1259;115240;-66
2023/01/26 07:06:29;;;;;;;84.20;43.00;;;;;;;2.33;75.02;100816.52;130051;1259;114730;-66
2023/01/26 07:09:32;;;;;;;79.30;45.10;;;;;;;2.33;74.92;100815.64;129979;1277;114746;-66
2023/01/26 07:12:43;;;;;;;86.10;42.10;;;;;;;2.32;75.01;100819.70;129985;1277;114724;-66
2023/01/26 07:15:45;;;;;;;85.60;45.60;;;;;;;2.33;75.16;100821.80;129958;1262;115292;-66
2023/01/26 07:18:48;;;;;;;83.70;43.50;;;;;;;2.34;75.11;100821.61;130033;1258;114724;-66
2023/01/26 07:21:50;;;;;;;89.90;45.30;;;;;;;2.32;75.16;100820.23;129982;1277;114783;-66
2023/01/26 07:24:52;;;;;;;90.50;46.60;;;;;;;2.31;75.25;100821.64;130088;1277;114805;-65
2023/01/26 07:27:58;;;;;;;90.00;44.30;;;;;;;2.31;75.41;100814.60;129945;1277;114748;-67
2023/01/26 07:31:02;;;;;;;85.50;42.70;;;;;;;2.30;75.19;100812.67;129707;1259;127565;-66
2023/01/26 07:34:04;;;;;;;76.90;40.50;;;;;;;2.30;75.14;100811.77;130016;1261;115177;-66
2023/01/26 07:37:06;;;;;;;67.90;35.60;;;;;;;2.31;75.24;100812.13;129869;1259;114725;-66
2023/01/26 07:40:10;;;;;;;73.20;38.20;;;;;;;2.32;75.07;100810.70;129791;1259;317585;-66
2023/01/26 07:43:13;;;;;;;74.30;39.80;;;;;;;2.34;75.10;100801.17;130089;1277;114739;-65
2023/01/26 07:46:16;;;;;;;74.00;39.00;;;;;;;2.38;74.87;100800.61;129872;1260;114852;-62
2023/01/26 07:49:18;;;;;;;73.50;40.60;;;;;;;2.41;74.79;100802.36;129949;1259;114743;-66
2023/01/26 07:52:21;;;;;;;74.80;40.60;;;;;;;2.45;74.86;100799.30;130012;1277;114744;-66
2023/01/26 07:55:25;;;;;;;71.80;39.70;;;;;;;2.48;74.67;100804.76;130098;1277;114788;-65
2023/01/26 07:58:27;;;;;;;75.70;37.90;;;;;;;2.50;74.56;100806.51;129895;1268;115108;-64
2023/01/26 08:01:30;;;;;;;67.70;38.20;;;;;;;2.52;74.57;100808.26;129899;1277;115145;-67
2023/01/26 08:04:33;;;;;;;68.20;37.80;;;;;;;2.52;74.59;100805.08;129949;1277;114779;-67
2023/01/26 08:07:35;;;;;;;68.50;39.30;;;;;;;2.52;74.31;100805.44;129993;1277;114814;-65
2023/01/26 08:10:38;;;;;;;74.80;38.80;;;;;;;2.53;74.60;100801.55;130070;1277;114750;-65
2023/01/26 08:13:41;;;;;;;73.90;40.30;;;;;;;2.55;74.80;100803.48;130158;1258;115256;-64
2023/01/26 08:16:44;;;;;;;70.80;40.80;;;;;;;2.57;74.65;100805.04;129968;1277;114743;-66
2023/01/26 08:19:46;;;;;;;75.30;42.30;;;;;;;2.58;74.31;100809.09;130000;1275;114799;-64
2023/01/26 08:22:49;;;;;;;76.50;41.00;;;;;;;2.56;74.23;100817.21;130024;1277;114751;-65
2023/01/26 08:25:51;;;;;;;72.70;39.80;;;;;;;2.55;74.30;100816.52;129970;1260;114709;-64
2023/01/26 08:28:54;;;;;;;72.60;37.20;;;;;;;2.56;74.19;100809.63;129701;1277;128530;-65
2023/01/26 08:31:56;;;;;;;70.30;37.80;;;;;;;2.61;74.30;100811.18;130127;1258;114738;-63
2023/01/26 08:34:58;;;;;;;76.80;41.40;;;;;;;2.65;74.25;100814.33;130044;1254;126467;-67
2023/01/26 08:38:01;;;;;;;78.00;41.10;;;;;;;2.73;74.47;100813.91;129866;1263;114931;-63
2023/01/26 08:41:05;;;;;;;73.30;43.30;;;;;;;2.81;74.28;100810.84;130005;1258;114798;-65
2023/01/26 08:44:09;;;;;;;101.00;58.90;;;;;;;2.82;73.92;100807.80;130072;1259;114798;-66
2023/01/26 08:47:11;;;;;;;72.40;38.70;;;;;;;2.80;73.62;100809.60;129987;1259;128954;-64
2023/01/26 08:50:14;;;;;;;79.10;44.10;;;;;;;2.78;73.53;100814.56;129968;1277;115202;-65
2023/01/26 08:53:16;;;;;;;73.10;39.50;;;;;;;2.71;73.29;100813.73;129997;1277;114751;-62
2023/01/26 08:56:19;;;;;;;67.70;37.60;;;;;;;2.65;73.31;100808.48;130076;1259;114712;-64
2023/01/26 08:59:22;;;;;;;68.40;39.80;;;;;;;2.68;73.58;100817.45;130017;1259;114723;-63
2023/01/26 09:02:24;;;;;;;69.00;39.40;;;;;;;2.71;73.38;100820.09;129820;1260;115109;-59
2023/01/26 09:05:27;;;;;;;67.40;39.40;;;;;;;2.77;73.58;100821.98;130032;1256;114811;-60
2023/01/26 09:08:30;;;;;;;71.40;40.20;;;;;;;2.83;73.58;100824.39;129812;1273;114848;-60
2023/01/26 09:11:32;;;;;;;72.50;38.90;;;;;;;2.88;73.55;100821.35;130032;1259;115119;-60
2023/01/26 09:14:34;;;;;;;65.60;39.50;;;;;;;2.93;73.45;100823.23;129728;1260;114854;-60
2023/01/26 09:17:37;;;;;;;73.60;39.30;;;;;;;2.98;73.66;100817.18;129899;1259;114783;-59
2023/01/26 09:20:40;;;;;;;67.30;35.00;;;;;;;3.06;73.64;100813.77;129983;1259;114734;-60
2023/01/26 09:23:42;;;;;;;72.20;39.00;;;;;;;3.16;73.59;100809.07;130036;1260;114781;-59
2023/01/26 09:26:44;;;;;;;77.40;44.40;;;;;;;3.28;73.54;100805.40;129656;1254;128448;-59
2023/01/26 09:29:47;;;;;;;74.80;42.70;;;;;;;3.38;73.37;100806.88;129830;1259;115272;-59
2023/01/26 09:32:50;;;;;;;114.90;66.40;;;;;;;3.48;73.25;100801.64;129994;1258;114721;-60
2023/01/26 09:35:52;;;;;;;72.90;40.40;;;;;;;3.56;73.10;100798.54;129824;1254;114815;-61
2023/01/26 09:38:54;;;;;;;68.50;36.70;;;;;;;3.60;72.28;100797.96;130021;1275;114796;-59
2023/01/26 09:42:12;;;;;;;64.30;37.00;;;;;;;3.60;71.90;100796.19;129690;1260;114886;-59
2023/01/26 09:45:32;;;;;;;77.00;44.50;;;;;;;3.60;72.26;100797.61;129983;1257;128678;-59
2023/01/26 09:49:06;;;;;;;71.80;37.80;;;;;;;3.65;71.86;100790.30;129694;1263;115323;-60
2023/01/26 09:52:17;;;;;;;78.40;43.00;;;;;;;3.70;71.86;100790.77;129811;1267;114740;-60
2023/01/26 09:55:21;;;;;;;65.00;36.80;;;;;;;3.74;71.59;100788.41;129737;1259;114814;-59
2023/01/26 09:58:38;;;;;;;69.20;37.10;;;;;;;3.72;71.13;100781.02;130048;1275;114686;-59
2023/01/26 10:02:02;;;;;;;62.80;37.90;;;;;;;3.76;71.63;100776.73;129782;1277;128582;-59
2023/01/26 10:05:18;;;;;;;59.90;35.80;;;;;;;3.80;71.33;100777.55;129618;1262;115259;-60
2023/01/26 10:08:24;;;;;;;64.60;34.80;;;;;;;3.80;71.39;100776.67;129853;1259;114760;-61
2023/01/26 10:11:31;;;;;;;66.00;36.20;;;;;;;3.81;71.17;100767.48;129795;1259;115090;-63
2023/01/26 10:14:38;;;;;;;60.90;33.10;;;;;;;3.80;71.23;100771.03;129946;1259;114796;-61
2023/01/26 10:17:42;;;;;;;62.80;35.00;;;;;;;3.73;70.52;100772.52;129888;1275;127729;-60
2023/01/26 10:20:49;;;;;;;68.10;37.30;;;;;;;3.72;70.94;100771.14;129913;1275;115193;-61
2023/01/26 10:23:51;;;;;;;60.00;33.60;;;;;;;3.75;70.88;100769.86;129977;1267;114777;-61
2023/01/26 10:26:56;;;;;;;57.50;33.30;;;;;;;3.76;70.41;100765.41;129948;1261;115431;-60
2023/01/26 10:29:58;;;;;;;68.30;33.80;;;;;;;3.73;70.49;100765.65;129851;1277;114737;-61
2023/01/26 10:33:01;;;;;;;60.60;33.10;;;;;;;3.68;70.46;100763.77;130004;1275;114740;-61
2023/01/26 10:36:06;;;;;;;62.00;34.10;;;;;;;3.64;70.41;100764.70;129977;1277;114782;-60
2023/01/26 10:39:10;;;;;;;58.70;32.40;;;;;;;3.63;70.41;100764.20;129718;1259;114833;-60
2023/01/26 10:42:17;;;;;;;63.50;36.00;;;;;;;3.60;70.33;100758.59;130116;1275;115101;-60
2023/01/26 10:45:32;;;;;;;77.50;40.20;;;;;;;3.62;70.48;100761.56;129652;1262;114867;-62
2023/01/26 10:48:34;;;;;;;60.80;35.00;;;;;;;3.61;70.45;100761.21;129635;1264;127736;-60
2023/01/26 10:51:45;;;;;;;62.10;34.10;;;;;;;3.62;70.68;100763.31;129959;1275;115263;-60
2023/01/26 10:54:48;;;;;;;61.00;35.00;;;;;;;3.67;70.52;100765.55;129848;1262;114886;-61
2023/01/26 10:57:51;;;;;;;61.40;35.50;;;;;;;3.68;70.24;100759.70;129758;1261;114738;-59
2023/01/26 11:00:56;;;;;;;52.30;30.30;;;;;;;3.67;70.28;100760.27;130027;1267;114731;-59
2023/01/26 11:04:19;;;;;;;51.90;31.10;;;;;;;3.66;70.48;100761.68;129639;1277;128283;-59
2023/01/26 11:07:27;;;;;;;52.90;31.70;;;;;;;3.70;70.47;100760.92;130023;1267;115183;-60
2023/01/26 11:10:33;;;;;;;49.60;29.70;;;;;;;3.71;70.25;100760.03;129742;1262;114761;-61
2023/01/26 11:13:36;;;;;;;50.30;29.90;;;;;;;3.67;70.01;100749.30;129708;1263;116667;-60
2023/01/26 11:16:41;;;;;;;51.70;28.80;;;;;;;3.60;69.89;100741.79;129848;1260;115158;-60
2023/01/26 11:19:54;;;;;;;54.30;30.90;;;;;;;3.59;69.90;100740.91;129665;1273;128730;-60
2023/01/26 11:23:09;;;;;;;51.90;30.40;;;;;;;3.58;69.71;100732.30;129988;1270;115173;-61
2023/01/26 11:26:19;;;;;;;;;;;;;;;3.62;69.89;100732.24;129959;1254;114811;-61
2023/01/26 11:29:49;;;;;;;52.10;29.50;;;;;;;3.63;69.94;100731.34;129961;1274;114782;-60
2023/01/26 11:32:58;;;;;;;52.70;30.30;;;;;;;3.63;69.76;100727.63;129668;1277;114727;-61
2023/01/26 11:36:27;;;;;;;55.60;31.00;;;;;;;3.60;69.32;100725.56;129948;1257;128634;-61
2023/01/26 11:40:00;;;;;;;50.10;29.80;;;;;;;3.58;69.49;100724.16;129588;1277;115284;-61
2023/01/26 11:43:31;;;;;;;54.50;32.20;;;;;;;3.54;69.50;100724.23;129660;1271;114920;-61
2023/01/26 11:47:11;;;;;;;53.50;31.00;;;;;;;3.56;69.66;100714.64;129739;1266;115336;-61
2023/01/26 11:50:41;;;;;;;52.10;31.30;;;;;;;3.62;69.66;100712.45;130104;1276;114734;-60
2023/01/26 11:54:05;;;;;;;55.40;32.50;;;;;;;3.67;69.73;100707.79;129575;1260;128531;-62
2023/01/26 11:57:08;;;;;;;60.60;35.80;;;;;;;3.71;69.39;100709.52;129608;1277;115285;-61
2023/01/26 12:00:10;;;;;;;56.10;31.90;;;;;;;3.70;69.33;100709.52;129890;1254;114815;-62
2023/01/26 12:03:43;;;;;;;57.00;33.00;;;;;;;3.71;69.17;100699.08;129956;1277;115164;-63
2023/01/26 12:06:52;;;;;;;88.20;56.70;;;;;;;3.72;69.33;100692.36;129546;1277;115139;-60
2023/01/26 12:09:55;;;;;;;63.60;37.30;;;;;;;3.76;69.44;100691.05;129584;1277;128663;-60
2023/01/26 12:13:30;;;;;;;78.80;44.10;;;;;;;3.74;68.84;100690.20;129972;1275;114741;-60
2023/01/26 12:16:59;;;;;;;57.50;33.30;;;;;;;3.69;68.79;100682.15;129716;1265;114820;-60
2023/01/26 12:20:38;;;;;;;64.20;35.30;;;;;;;3.67;68.85;100677.77;129924;1261;114790;-59
2023/01/26 12:23:49;;;;;;;72.80;43.50;;;;;;;3.70;69.15;100678.78;129961;1257;114809;-67
2023/01/26 12:26:52;;;;;;;64.30;36.50;;;;;;;3.71;69.17;100677.01;129554;1260;128909;-65
2023/01/26 12:30:24;;;;;;;63.80;33.60;;;;;;;3.72;69.26;100675.74;129930;1260;114732;-66
2023/01/26 12:33:27;;;;;;;53.80;30.00;;;;;;;3.74;69.14;100671.30;129521;1278;115051;-65
2023/01/26 12:37:07;;;;;;;64.20;34.90;;;;;;;3.75;68.95;100667.58;129889;1278;114747;-66
2023/01/26 12:40:31;;;;;;;217.40;101.40;;;;;;;3.67;68.24;100665.21;129684;1260;115303;-66
2023/01/26 12:43:40;;;;;;;79.60;41.90;;;;;;;3.56;68.15;100664.66;129839;1278;129116;-64
2023/01/26 12:46:49;;;;;;;57.50;33.50;;;;;;;3.50;68.26;100670.23;129672;1260;115231;-63
2023/01/26 12:50:28;;;;;;;62.00;33.80;;;;;;;3.41;68.30;100667.00;129848;1267;114722;-66
2023/01/26 12:54:12;;;;;;;73.50;39.40;;;;;;;3.34;68.26;100667.80;129076;1284;114750;-64
2023/01/26 12:57:17;;;;;;;62.70;34.90;;;;;;;3.28;68.48;100668.95;128559;1285;114878;-62
2023/01/26 13:00:21;;;;;;;60.60;34.20;;;;;;;3.25;68.60;100667.41;128660;1274;128561;-64
2023/01/26 13:03:28;;;;;;;59.10;33.60;;;;;;;3.20;68.35;100666.76;128661;1290;115392;-63
2023/01/26 13:06:31;;;;;;;56.50;33.60;;;;;;;3.09;68.01;100661.96;128789;1281;114899;-66
2023/01/26 13:09:33;;;;;;;49.40;28.90;;;;;;;3.02;68.40;100661.70;128851;1272;114835;-64
2023/01/26 13:13:20;;;;;;;50.80;28.60;;;;;;;2.93;68.67;100661.63;128859;1290;114860;-66
2023/01/26 13:16:23;;;;;;;56.70;30.30;;;;;;;2.85;68.76;100663.13;128889;1273;129282;-65
2023/01/26 13:19:41;;;;;;;54.10;30.90;;;;;;;2.83;69.06;100658.93;128996;1272;115225;-66
2023/01/26 13:22:44;;;;;;;47.00;28.70;;;;;;;2.81;69.01;100660.73;129019;1267;114918;-65
2023/01/26 13:26:17;;;;;;;52.50;29.80;;;;;;;2.74;68.95;100662.02;128945;1281;114875;-65
2023/01/26 13:29:30;;;;;;;52.50;30.20;;;;;;;2.70;69.23;100661.03;128844;1287;114830;-64
2023/01/26 13:32:39;;;;;;;46.00;26.50;;;;;;;2.72;69.49;100663.65;128903;1285;130686;-67
2023/01/26 13:35:41;;;;;;;50.30;29.90;;;;;;;2.71;69.44;100665.42;129863;1278;115509;-65
2023/01/26 13:38:52;;;;;;;52.30;29.70;;;;;;;2.66;69.43;100666.00;129847;1276;114787;-62
2023/01/26 13:41:54;;;;;;;46.20;24.60;;;;;;;2.63;69.58;100661.63;129688;1258;114837;-65
2023/01/26 13:45:01;;;;;;;62.70;34.00;;;;;;;2.68;69.91;100665.63;129842;1260;114830;-63
2023/01/26 13:48:09;;;;;;;56.30;31.30;;;;;;;2.73;69.88;100669.45;129851;1278;128875;-65
2023/01/26 13:51:19;;;;;;;51.10;29.80;;;;;;;2.78;69.87;100664.98;129810;1269;115180;-66
2023/01/26 13:54:22;;;;;;;59.10;33.60;;;;;;;2.84;70.04;100658.04;129710;1261;114766;-62
2023/01/26 13:57:28;;;;;;;53.20;31.20;;;;;;;2.90;69.75;100654.08;129829;1257;115194;-63
2023/01/26 14:00:30;;;;;;;50.90;30.40;;;;;;;2.92;69.93;100650.70;129769;1278;114855;-62
2023/01/26 14:03:33;;;;;;;49.90;30.10;;;;;;;2.92;69.67;100644.53;130005;1268;114769;-63
2023/01/26 14:06:41;;;;;;;55.60;31.80;;;;;;;2.89;69.68;100646.32;129963;1259;115353;-66
2023/01/26 14:09:55;;;;;;;52.80;30.60;;;;;;;2.88;69.71;100647.92;130101;1257;114824;-69
2023/01/26 14:12:59;;;;;;;56.00;30.90;;;;;;;2.83;69.60;100647.11;130022;1257;114658;-66
2023/01/26 14:16:04;;;;;;;55.20;30.50;;;;;;;2.79;69.63;100643.27;129707;1276;114801;-67
2023/01/26 14:19:14;;;;;;;57.30;34.50;;;;;;;2.71;69.61;100640.55;129803;1278;127591;-66
2023/01/26 14:22:16;;;;;;;69.00;37.70;;;;;;;2.68;69.69;100639.34;129817;1261;115934;-66
2023/01/26 14:25:19;;;;;;;64.70;34.70;;;;;;;2.63;69.68;100642.94;129925;1260;114739;-67
2023/01/26 14:28:25;;;;;;;51.80;30.80;;;;;;;2.54;69.44;100641.43;129932;1260;114728;-66
2023/01/26 14:31:28;;;;;;;52.60;31.40;;;;;;;2.46;69.66;100652.46;130024;1254;115210;-66
2023/01/26 14:34:30;;;;;;;67.70;38.10;;;;;;;2.41;69.78;100652.69;129865;1278;114732;-68
2023/01/26 14:37:33;;;;;;;54.60;33.60;;;;;;;2.36;69.94;100653.80;130079;1256;114821;-66
2023/01/26 14:40:51;;;;;;;59.70;31.70;;;;;;;2.33;70.02;100652.06;130176;1257;114753;-67
2023/01/26 14:43:56;;;;;;;62.80;35.10;;;;;;;2.29;70.09;100649.81;129880;1260;114868;-65
2023/01/26 14:47:11;;;;;;;59.10;29.60;;;;;;;2.27;70.08;100646.48;129872;1261;114718;-65
2023/01/26 14:50:13;;;;;;;;;;;;;;;2.26;70.01;100647.02;129695;1267;128461;-66
2023/01/26 14:53:19;;;;;;;50.50;30.40;;;;;;;2.24;70.01;100644.23;130031;1277;115134;-65